sensor_id;sensor_type;location;lat;lon;timestamp;pressure;altitude;pressure_sealevel;temperature;humidity
54978;BME280;40873;47.522;19.106;2024-02-23T00:01:39;98992.16;;;9.64;85.13
54978;BME280;40873;47.522;19.106;2024-02-23T00:04:06;98977.34;;;9.63;85.30
54978;BME280;40873;47.522;19.106;2024-02-23T00:06:34;98990.25;;;9.66;85.11
54978;BME280;40873;47.522;19.106;2024-02-23T00:09:01;98977.56;;;9.71;84.54
54978;BME280;40873;47.522;19.106;2024-02-23T00:11:28;98988.09;;;9.71;84.29
54978;BME280;40873;47.522;19.106;2024-02-23T00:13:56;98986.78;;;9.66;84.54
54978;BME280;40873;47.522;19.106;2024-02-23T00:16:23;98988.69;;;9.64;84.66
54978;BME280;40873;47.522;19.106;2024-02-23T00:18:50;98986.91;;;9.64;84.60
54978;BME280;40873;47.522;19.106;2024-02-23T00:21:17;98988.47;;;9.67;84.42
54978;BME280;40873;47.522;19.106;2024-02-23T00:23:44;98989.41;;;9.66;84.65
54978;BME280;40873;47.522;19.106;2024-02-23T00:26:12;98984.50;;;9.72;83.69
54978;BME280;40873;47.522;19.106;2024-02-23T00:28:38;98988.09;;;9.71;83.94
54978;BME280;40873;47.522;19.106;2024-02-23T00:31:06;98978.41;;;9.72;83.43
54978;BME280;40873;47.522;19.106;2024-02-23T00:33:33;98980.91;;;9.73;83.56
54978;BME280;40873;47.522;19.106;2024-02-23T00:36:00;98984.84;;;9.79;82.98
54978;BME280;40873;47.522;19.106;2024-02-23T00:38:27;98976.97;;;9.79;83.34
54978;BME280;40873;47.522;19.106;2024-02-23T00:40:54;98987.38;;;9.80;82.88
54978;BME280;40873;47.522;19.106;2024-02-23T00:43:21;98970.50;;;9.83;82.86
54978;BME280;40873;47.522;19.106;2024-02-23T00:45:49;98978.28;;;9.84;83.19
54978;BME280;40873;47.522;19.106;2024-02-23T00:48:16;98982.00;;;9.82;83.82
54978;BME280;40873;47.522;19.106;2024-02-23T00:50:43;98983.91;;;9.80;83.75
54978;BME280;40873;47.522;19.106;2024-02-23T00:53:10;98974.09;;;9.82;84.10
54978;BME280;40873;47.522;19.106;2024-02-23T00:55:38;98976.59;;;9.83;84.20
54978;BME280;40873;47.522;19.106;2024-02-23T00:58:05;98982.72;;;9.84;84.63
54978;BME280;40873;47.522;19.106;2024-02-23T01:00:32;98973.00;;;9.84;84.64
54978;BME280;40873;47.522;19.106;2024-02-23T01:02:59;98979.59;;;9.90;84.62
54978;BME280;40873;47.522;19.106;2024-02-23T01:05:27;98967.59;;;9.86;84.67
54978;BME280;40873;47.522;19.106;2024-02-23T01:07:54;98963.31;;;9.85;85.35
54978;BME280;40873;47.522;19.106;2024-02-23T01:10:21;98971.91;;;9.87;85.31
54978;BME280;40873;47.522;19.106;2024-02-23T01:12:48;98962.25;;;9.87;85.98
54978;BME280;40873;47.522;19.106;2024-02-23T01:15:16;98965.72;;;9.88;86.21
54978;BME280;40873;47.522;19.106;2024-02-23T01:17:42;98956.13;;;9.87;87.22
54978;BME280;40873;47.522;19.106;2024-02-23T01:20:10;98951.44;;;9.91;88.01
54978;BME280;40873;47.522;19.106;2024-02-23T01:22:37;98961.03;;;9.92;88.68
54978;BME280;40873;47.522;19.106;2024-02-23T01:25:05;98953.72;;;9.95;89.74
54978;BME280;40873;47.522;19.106;2024-02-23T01:27:32;98953.00;;;9.93;90.73
54978;BME280;40873;47.522;19.106;2024-02-23T01:29:59;98946.66;;;9.96;92.14
54978;BME280;40873;47.522;19.106;2024-02-23T01:32:26;98946.66;;;9.96;93.32
54978;BME280;40873;47.522;19.106;2024-02-23T01:34:54;98950.34;;;9.93;95.26
54978;BME280;40873;47.522;19.106;2024-02-23T01:37:21;98941.03;;;9.78;99.34
54978;BME280;40873;47.522;19.106;2024-02-23T01:39:51;98937.47;;;9.68;100.00
54978;BME280;40873;47.522;19.106;2024-02-23T01:42:18;98932.91;;;9.70;100.00
54978;BME280;40873;47.522;19.106;2024-02-23T01:44:45;98932.81;;;9.60;100.00
54978;BME280;40873;47.522;19.106;2024-02-23T01:47:12;98938.22;;;9.47;100.00
54978;BME280;40873;47.522;19.106;2024-02-23T01:49:39;98929.81;;;9.42;100.00
54978;BME280;40873;47.522;19.106;2024-02-23T01:52:07;98924.06;;;9.37;100.00
54978;BME280;40873;47.522;19.106;2024-02-23T01:54:34;98931.50;;;9.32;100.00
54978;BME280;40873;47.522;19.106;2024-02-23T01:57:01;98929.56;;;9.23;100.00
54978;BME280;40873;47.522;19.106;2024-02-23T01:59:49;98927.41;;;9.17;100.00
54978;BME280;40873;47.522;19.106;2024-02-23T02:02:16;98924.53;;;8.97;100.00
54978;BME280;40873;47.522;19.106;2024-02-23T02:04:44;98927.50;;;8.93;100.00
54978;BME280;40873;47.522;19.106;2024-02-23T02:07:11;98918.53;;;8.84;100.00
54978;BME280;40873;47.522;19.106;2024-02-23T02:09:38;98915.63;;;8.76;100.00
54978;BME280;40873;47.522;19.106;2024-02-23T02:12:05;98913.13;;;8.74;100.00
54978;BME280;40873;47.522;19.106;2024-02-23T02:14:32;98913.94;;;8.75;100.00
54978;BME280;40873;47.522;19.106;2024-02-23T02:17:00;98911.44;;;8.73;100.00
54978;BME280;40873;47.522;19.106;2024-02-23T02:19:27;98916.50;;;8.76;100.00
54978;BME280;40873;47.522;19.106;2024-02-23T02:21:55;98920.28;;;8.72;100.00
54978;BME280;40873;47.522;19.106;2024-02-23T02:24:27;98918.75;;;8.81;100.00
54978;BME280;40873;47.522;19.106;2024-02-23T02:26:54;98914.31;;;8.82;100.00
54978;BME280;40873;47.522;19.106;2024-02-23T02:29:22;98918.53;;;8.84;100.00
54978;BME280;40873;47.522;19.106;2024-02-23T02:31:49;98922.13;;;8.83;100.00
54978;BME280;40873;47.522;19.106;2024-02-23T02:34:16;98915.78;;;8.86;100.00
54978;BME280;40873;47.522;19.106;2024-02-23T02:36:46;98908.47;;;8.89;100.00
54978;BME280;40873;47.522;19.106;2024-02-23T02:39:13;98915.66;;;8.87;100.00
54978;BME280;40873;47.522;19.106;2024-02-23T02:41:40;98911.59;;;8.83;100.00
54978;BME280;40873;47.522;19.106;2024-02-23T02:44:07;98907.41;;;8.81;100.00
54978;BME280;40873;47.522;19.106;2024-02-23T02:46:36;98914.31;;;8.82;100.00
54978;BME280;40873;47.522;19.106;2024-02-23T02:49:04;98911.69;;;8.82;100.00
54978;BME280;40873;47.522;19.106;2024-02-23T02:51:31;98918.03;;;8.79;100.00
54978;BME280;40873;47.522;19.106;2024-02-23T02:53:58;98919.00;;;8.78;100.00
54978;BME280;40873;47.522;19.106;2024-02-23T02:56:25;98910.75;;;8.83;100.00
54978;BME280;40873;47.522;19.106;2024-02-23T02:58:52;98921.16;;;8.84;100.00
54978;BME280;40873;47.522;19.106;2024-02-23T03:01:19;98918.25;;;8.76;100.00
54978;BME280;40873;47.522;19.106;2024-02-23T03:03:46;98912.28;;;8.74;100.00
54978;BME280;40873;47.522;19.106;2024-02-23T03:06:13;98914.06;;;8.73;100.00
54978;BME280;40873;47.522;19.106;2024-02-23T03:08:44;98922.22;;;8.70;100.00
54978;BME280;40873;47.522;19.106;2024-02-23T03:11:10;98913.34;;;8.71;100.00
54978;BME280;40873;47.522;19.106;2024-02-23T03:13:39;98914.31;;;8.70;100.00
54978;BME280;40873;47.522;19.106;2024-02-23T03:16:06;98925.28;;;8.64;100.00
54978;BME280;40873;47.522;19.106;2024-02-23T03:18:33;98913.19;;;8.62;100.00
54978;BME280;40873;47.522;19.106;2024-02-23T03:21:00;98923.31;;;8.55;100.00
54978;BME280;40873;47.522;19.106;2024-02-23T03:23:27;98922.84;;;8.50;100.00
54978;BME280;40873;47.522;19.106;2024-02-23T03:25:55;98928.72;;;8.54;100.00
54978;BME280;40873;47.522;19.106;2024-02-23T03:28:23;98920.59;;;8.57;100.00
54978;BME280;40873;47.522;19.106;2024-02-23T03:30:53;98922.63;;;8.53;100.00
54978;BME280;40873;47.522;19.106;2024-02-23T03:33:20;98920.59;;;8.57;100.00
54978;BME280;40873;47.522;19.106;2024-02-23T03:35:47;98930.16;;;8.58;100.00
54978;BME280;40873;47.522;19.106;2024-02-23T03:38:14;98924.03;;;8.46;100.00
54978;BME280;40873;47.522;19.106;2024-02-23T03:40:41;98926.78;;;8.44;100.00
54978;BME280;40873;47.522;19.106;2024-02-23T03:43:09;98924.16;;;8.44;100.00
54978;BME280;40873;47.522;19.106;2024-02-23T03:45:36;98924.16;;;8.44;100.00
54978;BME280;40873;47.522;19.106;2024-02-23T03:48:03;98924.25;;;8.43;100.00
54978;BME280;40873;47.522;19.106;2024-02-23T03:50:31;98926.88;;;8.43;100.00
54978;BME280;40873;47.522;19.106;2024-02-23T03:52:58;98930.88;;;8.48;100.00
54978;BME280;40873;47.522;19.106;2024-02-23T03:55:25;98927.88;;;8.53;100.00
54978;BME280;40873;47.522;19.106;2024-02-23T03:57:52;98931.34;;;8.54;100.00
54978;BME280;40873;47.522;19.106;2024-02-23T04:00:19;98931.72;;;8.60;100.00
54978;BME280;40873;47.522;19.106;2024-02-23T04:02:49;98933.31;;;8.63;100.00
54978;BME280;40873;47.522;19.106;2024-02-23T04:05:16;98926.59;;;8.59;100.00
54978;BME280;40873;47.522;19.106;2024-02-23T04:07:44;98928.03;;;8.63;100.00
54978;BME280;40873;47.522;19.106;2024-02-23T04:10:11;98928.75;;;8.76;100.00
54978;BME280;40873;47.522;19.106;2024-02-23T04:12:43;98934.31;;;8.84;100.00
54978;BME280;40873;47.522;19.106;2024-02-23T04:15:10;98935.97;;;8.85;100.00
54978;BME280;40873;47.522;19.106;2024-02-23T04:17:37;98936.34;;;8.92;100.00
54978;BME280;40873;47.522;19.106;2024-02-23T04:20:06;98934.47;;;9.05;100.00
54978;BME280;40873;47.522;19.106;2024-02-23T04:22:34;98934.09;;;9.10;100.00
54978;BME280;40873;47.522;19.106;2024-02-23T04:25:01;98938.91;;;9.27;100.00
54978;BME280;40873;47.522;19.106;2024-02-23T04:27:28;98929.94;;;9.29;100.00
54978;BME280;40873;47.522;19.106;2024-02-23T04:29:55;98935.44;;;9.38;100.00
54978;BME280;40873;47.522;19.106;2024-02-23T04:32:22;98928.88;;;9.43;100.00
54978;BME280;40873;47.522;19.106;2024-02-23T04:34:50;98925.41;;;9.43;100.00
54978;BME280;40873;47.522;19.106;2024-02-23T04:37:17;98935.44;;;9.38;100.00
54978;BME280;40873;47.522;19.106;2024-02-23T04:39:44;98937.34;;;9.24;100.00
54978;BME280;40873;47.522;19.106;2024-02-23T04:42:11;98933.75;;;9.14;100.00
54978;BME280;40873;47.522;19.106;2024-02-23T04:44:42;98937.69;;;9.09;100.00
54978;BME280;40873;47.522;19.106;2024-02-23T04:47:09;98931.09;;;8.92;100.00
54978;BME280;40873;47.522;19.106;2024-02-23T04:49:36;98931.44;;;8.87;100.00
54978;BME280;40873;47.522;19.106;2024-02-23T04:52:05;98929.50;;;8.78;100.00
54978;BME280;40873;47.522;19.106;2024-02-23T04:54:32;98925.69;;;8.82;100.00
54978;BME280;40873;47.522;19.106;2024-02-23T04:56:59;98930.22;;;8.80;100.00
54978;BME280;40873;47.522;19.106;2024-02-23T04:59:26;98933.94;;;8.77;100.00
54978;BME280;40873;47.522;19.106;2024-02-23T05:01:53;98929.13;;;8.71;100.00
54978;BME280;40873;47.522;19.106;2024-02-23T05:04:20;98930.31;;;8.67;100.00
54978;BME280;40873;47.522;19.106;2024-02-23T05:06:47;98929.13;;;8.71;100.00
54978;BME280;40873;47.522;19.106;2024-02-23T05:09:15;98929.84;;;8.73;100.00
54978;BME280;40873;47.522;19.106;2024-02-23T05:11:42;98939.78;;;8.81;100.00
54978;BME280;40873;47.522;19.106;2024-02-23T05:14:09;98948.06;;;8.88;100.00
54978;BME280;40873;47.522;19.106;2024-02-23T05:16:37;98943.75;;;8.87;100.00
54978;BME280;40873;47.522;19.106;2024-02-23T05:19:03;98952.50;;;8.98;100.00
54978;BME280;40873;47.522;19.106;2024-02-23T05:21:31;98955.97;;;8.99;100.00
54978;BME280;40873;47.522;19.106;2024-02-23T05:23:58;98963.78;;;9.12;100.00
54978;BME280;40873;47.522;19.106;2024-02-23T05:26:25;98966.88;;;9.17;100.00
54978;BME280;40873;47.522;19.106;2024-02-23T05:28:52;98962.22;;;9.20;100.00
54978;BME280;40873;47.522;19.106;2024-02-23T05:31:19;98976.94;;;9.23;100.00
54978;BME280;40873;47.522;19.106;2024-02-23T05:33:46;98979.31;;;9.15;100.00
54978;BME280;40873;47.522;19.106;2024-02-23T05:36:15;98981.84;;;9.16;100.00
54978;BME280;40873;47.522;19.106;2024-02-23T05:38:42;98986.13;;;9.17;100.00
54978;BME280;40873;47.522;19.106;2024-02-23T05:41:12;98990.19;;;9.10;100.00
54978;BME280;40873;47.522;19.106;2024-02-23T05:43:40;98998.69;;;9.14;100.00
54978;BME280;40873;47.522;19.106;2024-02-23T05:46:07;99002.28;;;9.13;100.00
54978;BME280;40873;47.522;19.106;2024-02-23T05:48:34;99010.06;;;9.14;100.00
54978;BME280;40873;47.522;19.106;2024-02-23T05:51:01;99011.59;;;9.05;100.00
54978;BME280;40873;47.522;19.106;2024-02-23T05:53:28;99018.41;;;9.08;100.00
54978;BME280;40873;47.522;19.106;2024-02-23T05:55:59;99022.78;;;8.96;100.00
54978;BME280;40873;47.522;19.106;2024-02-23T05:58:26;99029.50;;;9.00;100.00
54978;BME280;40873;47.522;19.106;2024-02-23T06:00:53;99037.66;;;8.97;100.00
54978;BME280;40873;47.522;19.106;2024-02-23T06:03:20;99041.69;;;8.90;100.00
54978;BME280;40873;47.522;19.106;2024-02-23T06:05:47;99044.06;;;8.93;100.00
54978;BME280;40873;47.522;19.106;2024-02-23T06:08:14;99048.25;;;8.96;100.00
54978;BME280;40873;47.522;19.106;2024-02-23T06:10:42;99040.16;;;8.99;100.00
54978;BME280;40873;47.522;19.106;2024-02-23T06:13:10;99048.16;;;8.97;100.00
54978;BME280;40873;47.522;19.106;2024-02-23T06:15:37;99052.28;;;8.77;100.00
54978;BME280;40873;47.522;19.106;2024-02-23T06:18:05;99056.50;;;8.67;100.00
54978;BME280;40873;47.522;19.106;2024-02-23T06:20:32;99049.06;;;8.61;100.00
54978;BME280;40873;47.522;19.106;2024-02-23T06:22:59;99060.38;;;8.50;100.00
54978;BME280;40873;47.522;19.106;2024-02-23T06:25:27;99059.84;;;8.45;100.00
54978;BME280;40873;47.522;19.106;2024-02-23T06:27:53;99065.84;;;8.47;100.00
54978;BME280;40873;47.522;19.106;2024-02-23T06:30:21;99074.16;;;8.41;100.00
54978;BME280;40873;47.522;19.106;2024-02-23T06:32:48;99068.41;;;8.36;100.00
54978;BME280;40873;47.522;19.106;2024-02-23T06:35:15;99073.56;;;8.38;100.00
54978;BME280;40873;47.522;19.106;2024-02-23T06:37:42;99070.09;;;8.37;100.00
54978;BME280;40873;47.522;19.106;2024-02-23T06:40:09;99069.84;;;8.40;100.00
54978;BME280;40873;47.522;19.106;2024-02-23T06:42:36;99070.81;;;8.39;100.00
54978;BME280;40873;47.522;19.106;2024-02-23T06:45:04;99075.34;;;8.37;100.00
54978;BME280;40873;47.522;19.106;2024-02-23T06:47:31;99072.47;;;8.40;100.00
54978;BME280;40873;47.522;19.106;2024-02-23T06:49:59;99076.06;;;8.39;100.00
54978;BME280;40873;47.522;19.106;2024-02-23T06:52:27;99069.22;;;8.49;100.00
54978;BME280;40873;47.522;19.106;2024-02-23T06:54:55;99083.91;;;8.52;100.00
54978;BME280;40873;47.522;19.106;2024-02-23T06:57:22;99080.81;;;8.71;100.00
54978;BME280;40873;47.522;19.106;2024-02-23T06:59:52;99078.28;;;8.69;100.00
54978;BME280;40873;47.522;19.106;2024-02-23T07:02:19;99083.81;;;8.77;100.00
54978;BME280;40873;47.522;19.106;2024-02-23T07:04:46;99076.94;;;8.64;100.00
54978;BME280;40873;47.522;19.106;2024-02-23T07:07:13;99083.31;;;8.72;100.00
54978;BME280;40873;47.522;19.106;2024-02-23T07:09:40;99082.91;;;8.66;100.00
54978;BME280;40873;47.522;19.106;2024-02-23T07:12:10;99085.22;;;8.70;100.00
54978;BME280;40873;47.522;19.106;2024-02-23T07:14:40;99090.09;;;8.64;100.00
54978;BME280;40873;47.522;19.106;2024-02-23T07:17:07;99087.00;;;8.70;100.00
54978;BME280;40873;47.522;19.106;2024-02-23T07:19:34;99091.44;;;8.69;100.00
54978;BME280;40873;47.522;19.106;2024-02-23T07:22:02;99096.19;;;8.64;100.00
54978;BME280;40873;47.522;19.106;2024-02-23T07:24:28;99099.38;;;8.57;100.00
54978;BME280;40873;47.522;19.106;2024-02-23T07:26:56;99100.81;;;8.61;100.00
54978;BME280;40873;47.522;19.106;2024-02-23T07:29:23;99100.91;;;8.59;100.00
54978;BME280;40873;47.522;19.106;2024-02-23T07:31:50;99099.22;;;8.71;100.00
54978;BME280;40873;47.522;19.106;2024-02-23T07:34:18;99108.06;;;8.70;100.00
54978;BME280;40873;47.522;19.106;2024-02-23T07:36:45;99095.94;;;8.67;100.00
54978;BME280;40873;47.522;19.106;2024-02-23T07:39:12;99101.72;;;8.72;100.00
54978;BME280;40873;47.522;19.106;2024-02-23T07:41:39;99100.75;;;8.73;100.00
54978;BME280;40873;47.522;19.106;2024-02-23T07:44:06;99102.56;;;8.73;100.00
54978;BME280;40873;47.522;19.106;2024-02-23T07:46:34;99109.28;;;8.77;100.00
54978;BME280;40873;47.522;19.106;2024-02-23T07:49:00;99109.88;;;8.81;100.00
54978;BME280;40873;47.522;19.106;2024-02-23T07:51:28;99111.63;;;8.93;100.00
54978;BME280;40873;47.522;19.106;2024-02-23T07:53:55;99109.84;;;8.93;100.00
54978;BME280;40873;47.522;19.106;2024-02-23T07:56:25;99110.28;;;8.87;100.00
54978;BME280;40873;47.522;19.106;2024-02-23T07:58:52;99110.06;;;8.90;100.00
54978;BME280;40873;47.522;19.106;2024-02-23T08:01:20;99116.06;;;8.92;100.00
54978;BME280;40873;47.522;19.106;2024-02-23T08:03:47;99114.47;;;8.90;100.00
54978;BME280;40873;47.522;19.106;2024-02-23T08:06:14;99120.34;;;8.93;100.00
54978;BME280;40873;47.522;19.106;2024-02-23T08:08:41;99118.72;;;9.03;100.00
54978;BME280;40873;47.522;19.106;2024-02-23T08:11:08;99123.78;;;9.06;100.00
54978;BME280;40873;47.522;19.106;2024-02-23T08:13:35;99122.69;;;9.09;100.00
54978;BME280;40873;47.522;19.106;2024-02-23T08:16:02;99127.34;;;9.05;100.00
54978;BME280;40873;47.522;19.106;2024-02-23T08:18:30;99128.19;;;9.06;100.00
54978;BME280;40873;47.522;19.106;2024-02-23T08:20:59;99137.66;;;9.09;100.00
54978;BME280;40873;47.522;19.106;2024-02-23T08:23:29;99141.84;;;9.11;100.00
54978;BME280;40873;47.522;19.106;2024-02-23T08:25:57;99136.47;;;9.13;100.00
54978;BME280;40873;47.522;19.106;2024-02-23T08:28:25;99139.31;;;9.10;100.00
54978;BME280;40873;47.522;19.106;2024-02-23T08:30:52;99134.81;;;9.12;100.00
54978;BME280;40873;47.522;19.106;2024-02-23T08:33:19;99137.44;;;9.12;100.00
54978;BME280;40873;47.522;19.106;2024-02-23T08:35:47;99137.19;;;9.15;100.00
54978;BME280;40873;47.522;19.106;2024-02-23T08:38:15;99133.84;;;9.13;100.00
54978;BME280;40873;47.522;19.106;2024-02-23T08:40:42;99132.88;;;9.14;100.00
54978;BME280;40873;47.522;19.106;2024-02-23T08:43:09;99143.09;;;9.18;100.00
54978;BME280;40873;47.522;19.106;2024-02-23T08:45:36;99142.00;;;9.21;100.00
54978;BME280;40873;47.522;19.106;2024-02-23T08:48:03;99144.00;;;9.17;100.00
54978;BME280;40873;47.522;19.106;2024-02-23T08:50:31;99148.56;;;9.15;100.00
54978;BME280;40873;47.522;19.106;2024-02-23T08:52:58;99146.56;;;9.19;100.00
54978;BME280;40873;47.522;19.106;2024-02-23T08:55:25;99151.72;;;9.31;100.00
54978;BME280;40873;47.522;19.106;2024-02-23T08:57:52;99147.53;;;9.29;100.00
54978;BME280;40873;47.522;19.106;2024-02-23T09:00:19;99147.03;;;9.24;100.00
54978;BME280;40873;47.522;19.106;2024-02-23T09:02:46;99163.38;;;9.16;100.00
54978;BME280;40873;47.522;19.106;2024-02-23T09:05:13;99156.50;;;9.26;100.00
54978;BME280;40873;47.522;19.106;2024-02-23T09:07:41;99159.81;;;9.17;100.00
54978;BME280;40873;47.522;19.106;2024-02-23T09:10:09;99157.41;;;9.14;100.00
54978;BME280;40873;47.522;19.106;2024-02-23T09:12:36;99157.34;;;9.27;100.00
54978;BME280;40873;47.522;19.106;2024-02-23T09:15:03;99156.50;;;9.26;100.00
54978;BME280;40873;47.522;19.106;2024-02-23T09:17:30;99163.28;;;9.18;100.00
54978;BME280;40873;47.522;19.106;2024-02-23T09:19:58;99161.91;;;9.25;100.00
54978;BME280;40873;47.522;19.106;2024-02-23T09:22:24;99169.56;;;9.28;100.00
54978;BME280;40873;47.522;19.106;2024-02-23T09:24:52;99169.09;;;9.34;100.00
54978;BME280;40873;47.522;19.106;2024-02-23T09:27:22;99177.69;;;9.25;100.00
54978;BME280;40873;47.522;19.106;2024-02-23T09:29:49;99172.31;;;9.26;100.00
54978;BME280;40873;47.522;19.106;2024-02-23T09:32:16;99169.81;;;9.36;100.00
54978;BME280;40873;47.522;19.106;2024-02-23T09:34:43;99174.97;;;9.38;100.00
54978;BME280;40873;47.522;19.106;2024-02-23T09:37:10;99164.34;;;9.39;100.00
54978;BME280;40873;47.522;19.106;2024-02-23T09:39:37;99177.38;;;9.41;100.00
54978;BME280;40873;47.522;19.106;2024-02-23T09:42:09;99164.22;;;9.41;100.00
54978;BME280;40873;47.522;19.106;2024-02-23T09:44:41;99175.59;;;9.41;100.00
54978;BME280;40873;47.522;19.106;2024-02-23T09:47:12;99179.66;;;9.45;100.00
54978;BME280;40873;47.522;19.106;2024-02-23T09:49:41;99179.91;;;9.42;100.00
54978;BME280;40873;47.522;19.106;2024-02-23T09:52:08;99175.97;;;9.48;100.00
54978;BME280;40873;47.522;19.106;2024-02-23T09:54:38;99177.28;;;9.42;100.00
54978;BME280;40873;47.522;19.106;2024-02-23T09:57:08;99180.13;;;9.39;100.00
54978;BME280;40873;47.522;19.106;2024-02-23T09:59:36;99183.03;;;9.47;100.00
54978;BME280;40873;47.522;19.106;2024-02-23T10:02:15;99176.56;;;9.51;100.00
54978;BME280;40873;47.522;19.106;2024-02-23T10:04:43;99189.03;;;9.49;100.00
54978;BME280;40873;47.522;19.106;2024-02-23T10:07:14;99180.78;;;9.54;100.00
54978;BME280;40873;47.522;19.106;2024-02-23T10:09:41;99184.38;;;9.53;100.00
54978;BME280;40873;47.522;19.106;2024-02-23T10:12:08;99187.50;;;9.58;100.00
54978;BME280;40873;47.522;19.106;2024-02-23T10:14:35;99193.50;;;9.60;100.00
54978;BME280;40873;47.522;19.106;2024-02-23T10:17:03;99188.69;;;9.54;100.00
54978;BME280;40873;47.522;19.106;2024-02-23T10:19:30;99198.09;;;9.45;100.00
54978;BME280;40873;47.522;19.106;2024-02-23T10:21:58;99189.78;;;9.63;100.00
54978;BME280;40873;47.522;19.106;2024-02-23T10:24:25;99190.28;;;9.68;100.00
54978;BME280;40873;47.522;19.106;2024-02-23T10:26:52;99197.69;;;9.63;100.00
54978;BME280;40873;47.522;19.106;2024-02-23T10:29:19;99195.78;;;9.65;100.00
54978;BME280;40873;47.522;19.106;2024-02-23T10:31:51;99195.06;;;9.63;100.00
54978;BME280;40873;47.522;19.106;2024-02-23T10:34:19;99195.31;;;9.71;100.00
54978;BME280;40873;47.522;19.106;2024-02-23T10:36:49;99197.63;;;9.86;100.00
54978;BME280;40873;47.522;19.106;2024-02-23T10:39:18;99196.41;;;9.79;100.00
54978;BME280;40873;47.522;19.106;2024-02-23T10:42:02;99205.66;;;9.85;100.00
54978;BME280;40873;47.522;19.106;2024-02-23T10:44:30;99202.81;;;9.88;100.00
54978;BME280;40873;47.522;19.106;2024-02-23T10:47:00;99194.19;;;9.97;100.00
54978;BME280;40873;47.522;19.106;2024-02-23T10:49:28;99198.63;;;9.97;100.00
54978;BME280;40873;47.522;19.106;2024-02-23T10:51:56;99195.53;;;10.03;100.00
54978;BME280;40873;47.522;19.106;2024-02-23T10:54:23;99200.88;;;10.01;100.00
54978;BME280;40873;47.522;19.106;2024-02-23T10:56:51;99201.53;;;10.16;100.00
54978;BME280;40873;47.522;19.106;2024-02-23T10:59:18;99200.19;;;9.99;100.00
54978;BME280;40873;47.522;19.106;2024-02-23T11:01:50;99199.25;;;10.11;100.00
54978;BME280;40873;47.522;19.106;2024-02-23T11:04:19;99201.16;;;10.09;100.00
54978;BME280;40873;47.522;19.106;2024-02-23T11:06:51;99196.03;;;10.19;100.00
54978;BME280;40873;47.522;19.106;2024-02-23T11:09:23;99204.19;;;10.27;100.00
54978;BME280;40873;47.522;19.106;2024-02-23T11:11:53;99199.31;;;10.23;100.00
54978;BME280;40873;47.522;19.106;2024-02-23T11:14:38;99191.03;;;10.27;100.00
54978;BME280;40873;47.522;19.106;2024-02-23T11:17:06;99203.63;;;10.46;100.00
54978;BME280;40873;47.522;19.106;2024-02-23T11:19:39;99203.63;;;10.57;100.00
54978;BME280;40873;47.522;19.106;2024-02-23T11:22:10;99200.03;;;10.58;100.00
54978;BME280;40873;47.522;19.106;2024-02-23T11:24:49;99204.94;;;10.63;100.00
54978;BME280;40873;47.522;19.106;2024-02-23T11:27:24;99204.69;;;10.55;100.00
54978;BME280;40873;47.522;19.106;2024-02-23T11:30:05;99202.66;;;10.47;100.00
54978;BME280;40873;47.522;19.106;2024-02-23T11:32:41;99195.94;;;10.54;100.00
54978;BME280;40873;47.522;19.106;2024-02-23T11:35:14;99202.41;;;10.61;100.00
54978;BME280;40873;47.522;19.106;2024-02-23T11:37:52;99196.78;;;10.55;100.00
54978;BME280;40873;47.522;19.106;2024-02-23T11:40:28;99194.63;;;10.60;100.00
54978;BME280;40873;47.522;19.106;2024-02-23T11:42:57;99189.00;;;10.64;100.00
54978;BME280;40873;47.522;19.106;2024-02-23T11:45:24;99194.28;;;10.64;100.00
54978;BME280;40873;47.522;19.106;2024-02-23T11:47:52;99194.38;;;10.74;100.00
54978;BME280;40873;47.522;19.106;2024-02-23T11:50:19;99193.66;;;10.72;100.00
54978;BME280;40873;47.522;19.106;2024-02-23T11:52:48;99182.88;;;10.75;100.00
54978;BME280;40873;47.522;19.106;2024-02-23T11:55:19;99191.59;;;10.76;100.00
54978;BME280;40873;47.522;19.106;2024-02-23T11:57:50;99179.25;;;10.76;100.00
54978;BME280;40873;47.522;19.106;2024-02-23T12:00:31;99179.38;;;10.86;100.00
54978;BME280;40873;47.522;19.106;2024-02-23T12:02:58;99175.28;;;10.93;100.00
54978;BME280;40873;47.522;19.106;2024-02-23T12:05:26;99170.09;;;10.91;100.00
54978;BME280;40873;47.522;19.106;2024-02-23T12:07:57;99175.50;;;10.90;100.00
54978;BME280;40873;47.522;19.106;2024-02-23T12:10:25;99186.19;;;10.88;100.00
54978;BME280;40873;47.522;19.106;2024-02-23T12:12:53;99178.75;;;10.93;100.00
54978;BME280;40873;47.522;19.106;2024-02-23T12:15:20;99167.09;;;11.07;100.00
54978;BME280;40873;47.522;19.106;2024-02-23T12:17:49;99164.16;;;11.21;100.00
54978;BME280;40873;47.522;19.106;2024-02-23T12:20:16;99167.91;;;11.40;100.00
54978;BME280;40873;47.522;19.106;2024-02-23T12:22:44;99166.38;;;11.37;100.00
54978;BME280;40873;47.522;19.106;2024-02-23T12:25:12;99165.00;;;11.22;100.00
54978;BME280;40873;47.522;19.106;2024-02-23T12:27:40;99168.22;;;11.25;100.00
54978;BME280;40873;47.522;19.106;2024-02-23T12:30:17;99165.84;;;11.22;100.00
54978;BME280;40873;47.522;19.106;2024-02-23T12:32:45;99162.59;;;11.19;100.00
54978;BME280;40873;47.522;19.106;2024-02-23T12:35:15;99162.00;;;11.27;100.00
54978;BME280;40873;47.522;19.106;2024-02-23T12:37:43;99170.06;;;11.14;100.00
54978;BME280;40873;47.522;19.106;2024-02-23T12:40:12;99172.81;;;11.12;100.00
54978;BME280;40873;47.522;19.106;2024-02-23T12:42:40;99175.84;;;11.08;100.00
54978;BME280;40873;47.522;19.106;2024-02-23T12:45:07;99181.97;;;11.08;100.00
54978;BME280;40873;47.522;19.106;2024-02-23T12:47:34;99170.50;;;11.19;100.00
54978;BME280;40873;47.522;19.106;2024-02-23T12:50:01;99172.31;;;11.18;100.00
54978;BME280;40873;47.522;19.106;2024-02-23T12:52:29;99177.59;;;11.18;100.00
54978;BME280;40873;47.522;19.106;2024-02-23T12:54:56;99177.53;;;11.09;100.00